sensor_id;sensor_type;location;lat;lon;timestamp;P1;durP1;ratioP1;P2;durP2;ratioP2
2838;SDS011;1427;48.510;9.060;2023-11-19T00:01:18;45.40;;;2.60;;
2838;SDS011;1427;48.510;9.060;2023-11-19T00:03:46;45.97;;;3.00;;
2838;SDS011;1427;48.510;9.060;2023-11-19T00:06:16;45.40;;;2.87;;
2838;SDS011;1427;48.510;9.060;2023-11-19T00:08:45;45.20;;;2.47;;
2838;SDS011;1427;48.510;9.060;2023-11-19T00:11:13;45.10;;;2.60;;
2838;SDS011;1427;48.510;9.060;2023-11-19T00:13:42;45.43;;;2.87;;
2838;SDS011;1427;48.510;9.060;2023-11-19T00:16:10;45.10;;;2.30;;
2838;SDS011;1427;48.510;9.060;2023-11-19T00:18:40;45.57;;;2.67;;
2838;SDS011;1427;48.510;9.060;2023-11-19T00:21:08;45.00;;;2.30;;
2838;SDS011;1427;48.510;9.060;2023-11-19T00:23:36;45.47;;;2.40;;
2838;SDS011;1427;48.510;9.060;2023-11-19T00:26:05;45.77;;;2.77;;
2838;SDS011;1427;48.510;9.060;2023-11-19T00:28:33;45.13;;;2.50;;
2838;SDS011;1427;48.510;9.060;2023-11-19T00:31:05;45.50;;;2.80;;
2838;SDS011;1427;48.510;9.060;2023-11-19T00:33:33;45.37;;;2.50;;
2838;SDS011;1427;48.510;9.060;2023-11-19T00:36:03;45.77;;;2.70;;
2838;SDS011;1427;48.510;9.060;2023-11-19T00:38:31;45.23;;;2.50;;
2838;SDS011;1427;48.510;9.060;2023-11-19T00:40:59;45.13;;;2.43;;
2838;SDS011;1427;48.510;9.060;2023-11-19T00:43:28;47.47;;;3.00;;
2838;SDS011;1427;48.510;9.060;2023-11-19T00:45:57;45.17;;;2.70;;
2838;SDS011;1427;48.510;9.060;2023-11-19T00:48:25;44.87;;;2.20;;
2838;SDS011;1427;48.510;9.060;2023-11-19T00:50:54;45.50;;;3.10;;
2838;SDS011;1427;48.510;9.060;2023-11-19T00:53:23;45.43;;;2.40;;
2838;SDS011;1427;48.510;9.060;2023-11-19T00:55:51;45.17;;;2.40;;
2838;SDS011;1427;48.510;9.060;2023-11-19T00:58:20;45.40;;;2.63;;
2838;SDS011;1427;48.510;9.060;2023-11-19T01:00:48;45.17;;;2.40;;
2838;SDS011;1427;48.510;9.060;2023-11-19T01:03:16;45.63;;;2.83;;
2838;SDS011;1427;48.510;9.060;2023-11-19T01:05:45;45.00;;;2.27;;
2838;SDS011;1427;48.510;9.060;2023-11-19T01:08:14;44.90;;;2.00;;
2838;SDS011;1427;48.510;9.060;2023-11-19T01:10:44;45.20;;;2.27;;
2838;SDS011;1427;48.510;9.060;2023-11-19T01:13:13;44.67;;;2.07;;
2838;SDS011;1427;48.510;9.060;2023-11-19T01:15:41;44.60;;;1.70;;
2838;SDS011;1427;48.510;9.060;2023-11-19T01:18:10;44.83;;;1.70;;
2838;SDS011;1427;48.510;9.060;2023-11-19T01:20:40;45.73;;;2.60;;
2838;SDS011;1427;48.510;9.060;2023-11-19T01:23:09;45.17;;;2.30;;
2838;SDS011;1427;48.510;9.060;2023-11-19T01:25:37;45.07;;;2.00;;
2838;SDS011;1427;48.510;9.060;2023-11-19T01:28:07;44.90;;;2.03;;
2838;SDS011;1427;48.510;9.060;2023-11-19T01:30:36;45.03;;;2.20;;
2838;SDS011;1427;48.510;9.060;2023-11-19T01:33:05;44.83;;;1.83;;
2838;SDS011;1427;48.510;9.060;2023-11-19T01:35:34;45.27;;;2.37;;
2838;SDS011;1427;48.510;9.060;2023-11-19T01:38:03;45.10;;;2.50;;
2838;SDS011;1427;48.510;9.060;2023-11-19T01:40:31;44.90;;;1.93;;
2838;SDS011;1427;48.510;9.060;2023-11-19T01:43:00;44.97;;;2.20;;
2838;SDS011;1427;48.510;9.060;2023-11-19T01:45:30;44.77;;;2.10;;
2838;SDS011;1427;48.510;9.060;2023-11-19T01:48:00;44.80;;;1.90;;
2838;SDS011;1427;48.510;9.060;2023-11-19T01:50:31;44.70;;;1.83;;
2838;SDS011;1427;48.510;9.060;2023-11-19T01:53:00;44.87;;;2.20;;
2838;SDS011;1427;48.510;9.060;2023-11-19T01:55:29;44.80;;;1.90;;
2838;SDS011;1427;48.510;9.060;2023-11-19T01:57:59;44.70;;;1.97;;
2838;SDS011;1427;48.510;9.060;2023-11-19T02:00:28;44.87;;;1.90;;
2838;SDS011;1427;48.510;9.060;2023-11-19T02:03:01;44.77;;;2.00;;
2838;SDS011;1427;48.510;9.060;2023-11-19T02:05:31;45.50;;;2.83;;
2838;SDS011;1427;48.510;9.060;2023-11-19T02:08:00;44.73;;;1.80;;
2838;SDS011;1427;48.510;9.060;2023-11-19T02:10:30;45.87;;;2.80;;
2838;SDS011;1427;48.510;9.060;2023-11-19T02:12:59;45.20;;;2.43;;
2838;SDS011;1427;48.510;9.060;2023-11-19T02:15:32;44.67;;;1.80;;
2838;SDS011;1427;48.510;9.060;2023-11-19T02:18:18;44.73;;;1.90;;
2838;SDS011;1427;48.510;9.060;2023-11-19T02:20:49;44.90;;;1.90;;
2838;SDS011;1427;48.510;9.060;2023-11-19T02:23:18;44.70;;;2.10;;
2838;SDS011;1427;48.510;9.060;2023-11-19T02:25:51;45.50;;;1.80;;
2838;SDS011;1427;48.510;9.060;2023-11-19T02:28:26;44.50;;;1.53;;
2838;SDS011;1427;48.510;9.060;2023-11-19T02:30:54;45.37;;;2.30;;
2838;SDS011;1427;48.510;9.060;2023-11-19T02:33:23;44.87;;;1.97;;
2838;SDS011;1427;48.510;9.060;2023-11-19T02:35:52;44.77;;;1.80;;
2838;SDS011;1427;48.510;9.060;2023-11-19T02:38:21;44.50;;;2.00;;
2838;SDS011;1427;48.510;9.060;2023-11-19T02:40:50;44.73;;;1.70;;
2838;SDS011;1427;48.510;9.060;2023-11-19T02:43:21;44.70;;;1.97;;
2838;SDS011;1427;48.510;9.060;2023-11-19T02:45:52;44.40;;;1.70;;
2838;SDS011;1427;48.510;9.060;2023-11-19T02:48:22;44.60;;;1.60;;
2838;SDS011;1427;48.510;9.060;2023-11-19T02:50:51;44.67;;;1.70;;
2838;SDS011;1427;48.510;9.060;2023-11-19T02:53:20;44.77;;;1.87;;
2838;SDS011;1427;48.510;9.060;2023-11-19T02:55:49;44.60;;;1.50;;
2838;SDS011;1427;48.510;9.060;2023-11-19T02:58:18;44.73;;;1.70;;
2838;SDS011;1427;48.510;9.060;2023-11-19T03:00:52;44.67;;;1.70;;
2838;SDS011;1427;48.510;9.060;2023-11-19T03:03:24;44.67;;;1.60;;
2838;SDS011;1427;48.510;9.060;2023-11-19T03:05:57;44.57;;;1.40;;
2838;SDS011;1427;48.510;9.060;2023-11-19T03:08:26;44.87;;;1.70;;
2838;SDS011;1427;48.510;9.060;2023-11-19T03:10:56;44.60;;;1.70;;
2838;SDS011;1427;48.510;9.060;2023-11-19T03:13:26;44.67;;;1.70;;
2838;SDS011;1427;48.510;9.060;2023-11-19T03:15:56;44.50;;;1.50;;
2838;SDS011;1427;48.510;9.060;2023-11-19T03:18:25;44.80;;;1.70;;
2838;SDS011;1427;48.510;9.060;2023-11-19T03:20:55;44.80;;;1.90;;
2838;SDS011;1427;48.510;9.060;2023-11-19T03:23:25;44.80;;;1.87;;
2838;SDS011;1427;48.510;9.060;2023-11-19T03:25:55;44.77;;;1.70;;
2838;SDS011;1427;48.510;9.060;2023-11-19T03:28:27;46.37;;;2.30;;
2838;SDS011;1427;48.510;9.060;2023-11-19T03:30:57;44.60;;;1.80;;
2838;SDS011;1427;48.510;9.060;2023-11-19T03:33:26;45.23;;;2.00;;
2838;SDS011;1427;48.510;9.060;2023-11-19T03:35:56;44.50;;;1.60;;
2838;SDS011;1427;48.510;9.060;2023-11-19T03:38:24;44.60;;;1.73;;
2838;SDS011;1427;48.510;9.060;2023-11-19T03:40:53;44.60;;;1.60;;
2838;SDS011;1427;48.510;9.060;2023-11-19T03:43:22;44.50;;;1.60;;
2838;SDS011;1427;48.510;9.060;2023-11-19T03:45:51;44.50;;;1.67;;
2838;SDS011;1427;48.510;9.060;2023-11-19T03:48:21;44.73;;;1.73;;
2838;SDS011;1427;48.510;9.060;2023-11-19T03:50:50;44.60;;;2.07;;
2838;SDS011;1427;48.510;9.060;2023-11-19T03:53:18;44.67;;;1.70;;
2838;SDS011;1427;48.510;9.060;2023-11-19T03:55:47;44.80;;;2.13;;
2838;SDS011;1427;48.510;9.060;2023-11-19T03:58:16;44.47;;;1.43;;
2838;SDS011;1427;48.510;9.060;2023-11-19T04:00:45;45.00;;;2.10;;
2838;SDS011;1427;48.510;9.060;2023-11-19T04:03:14;44.57;;;1.60;;
2838;SDS011;1427;48.510;9.060;2023-11-19T04:05:44;44.47;;;1.60;;
2838;SDS011;1427;48.510;9.060;2023-11-19T04:08:13;44.93;;;1.93;;
2838;SDS011;1427;48.510;9.060;2023-11-19T04:10:42;44.67;;;1.80;;
2838;SDS011;1427;48.510;9.060;2023-11-19T04:13:11;44.67;;;1.87;;
2838;SDS011;1427;48.510;9.060;2023-11-19T04:15:39;44.77;;;1.67;;
2838;SDS011;1427;48.510;9.060;2023-11-19T04:18:09;44.63;;;1.77;;
2838;SDS011;1427;48.510;9.060;2023-11-19T04:20:38;44.87;;;1.70;;
2838;SDS011;1427;48.510;9.060;2023-11-19T04:23:09;44.40;;;1.40;;
2838;SDS011;1427;48.510;9.060;2023-11-19T04:25:38;44.70;;;1.80;;
2838;SDS011;1427;48.510;9.060;2023-11-19T04:28:07;44.47;;;1.60;;
2838;SDS011;1427;48.510;9.060;2023-11-19T04:30:35;44.93;;;1.63;;
2838;SDS011;1427;48.510;9.060;2023-11-19T04:33:04;45.20;;;2.30;;
2838;SDS011;1427;48.510;9.060;2023-11-19T04:35:35;45.57;;;2.10;;
2838;SDS011;1427;48.510;9.060;2023-11-19T04:38:04;44.60;;;1.67;;
2838;SDS011;1427;48.510;9.060;2023-11-19T04:40:34;44.40;;;1.60;;
2838;SDS011;1427;48.510;9.060;2023-11-19T04:43:03;44.77;;;1.60;;
2838;SDS011;1427;48.510;9.060;2023-11-19T04:45:31;44.57;;;1.53;;
2838;SDS011;1427;48.510;9.060;2023-11-19T04:47:59;44.63;;;1.57;;
2838;SDS011;1427;48.510;9.060;2023-11-19T04:50:27;46.20;;;2.00;;
2838;SDS011;1427;48.510;9.060;2023-11-19T04:52:55;44.50;;;1.50;;
2838;SDS011;1427;48.510;9.060;2023-11-19T04:55:26;44.70;;;1.47;;
2838;SDS011;1427;48.510;9.060;2023-11-19T04:57:56;44.80;;;1.63;;
2838;SDS011;1427;48.510;9.060;2023-11-19T05:00:24;44.70;;;1.53;;
2838;SDS011;1427;48.510;9.060;2023-11-19T05:02:52;45.80;;;1.70;;
2838;SDS011;1427;48.510;9.060;2023-11-19T05:05:20;44.90;;;1.60;;
2838;SDS011;1427;48.510;9.060;2023-11-19T05:07:48;44.67;;;1.40;;
2838;SDS011;1427;48.510;9.060;2023-11-19T05:10:17;44.50;;;1.40;;
2838;SDS011;1427;48.510;9.060;2023-11-19T05:12:45;44.83;;;1.77;;
2838;SDS011;1427;48.510;9.060;2023-11-19T05:15:15;45.00;;;2.37;;
2838;SDS011;1427;48.510;9.060;2023-11-19T05:17:43;44.30;;;1.50;;
2838;SDS011;1427;48.510;9.060;2023-11-19T05:20:12;44.73;;;1.83;;
2838;SDS011;1427;48.510;9.060;2023-11-19T05:22:40;44.80;;;1.40;;
2838;SDS011;1427;48.510;9.060;2023-11-19T05:25:09;44.30;;;1.30;;
2838;SDS011;1427;48.510;9.060;2023-11-19T05:27:38;44.70;;;1.50;;
2838;SDS011;1427;48.510;9.060;2023-11-19T05:30:06;44.60;;;1.40;;
2838;SDS011;1427;48.510;9.060;2023-11-19T05:32:38;44.70;;;1.40;;
2838;SDS011;1427;48.510;9.060;2023-11-19T05:35:07;44.73;;;1.50;;
2838;SDS011;1427;48.510;9.060;2023-11-19T05:37:36;45.10;;;2.07;;
2838;SDS011;1427;48.510;9.060;2023-11-19T05:40:05;44.70;;;1.40;;
2838;SDS011;1427;48.510;9.060;2023-11-19T05:42:41;44.87;;;1.50;;
2838;SDS011;1427;48.510;9.060;2023-11-19T05:45:10;44.97;;;1.53;;
2838;SDS011;1427;48.510;9.060;2023-11-19T05:47:40;44.87;;;1.60;;
2838;SDS011;1427;48.510;9.060;2023-11-19T05:50:10;44.47;;;1.40;;
2838;SDS011;1427;48.510;9.060;2023-11-19T05:52:38;44.63;;;1.40;;
2838;SDS011;1427;48.510;9.060;2023-11-19T05:55:07;44.80;;;1.90;;
2838;SDS011;1427;48.510;9.060;2023-11-19T05:57:37;44.87;;;1.90;;
2838;SDS011;1427;48.510;9.060;2023-11-19T06:00:09;44.50;;;1.40;;
2838;SDS011;1427;48.510;9.060;2023-11-19T06:02:41;44.60;;;1.40;;
2838;SDS011;1427;48.510;9.060;2023-11-19T06:05:09;44.80;;;1.60;;
2838;SDS011;1427;48.510;9.060;2023-11-19T06:07:37;44.83;;;1.40;;
2838;SDS011;1427;48.510;9.060;2023-11-19T06:10:08;44.67;;;1.70;;
2838;SDS011;1427;48.510;9.060;2023-11-19T06:12:37;45.00;;;2.00;;
2838;SDS011;1427;48.510;9.060;2023-11-19T06:15:08;44.90;;;1.77;;
2838;SDS011;1427;48.510;9.060;2023-11-19T06:17:38;44.87;;;1.57;;
2838;SDS011;1427;48.510;9.060;2023-11-19T06:20:08;45.67;;;1.87;;
2838;SDS011;1427;48.510;9.060;2023-11-19T06:22:38;45.63;;;1.70;;
2838;SDS011;1427;48.510;9.060;2023-11-19T06:25:06;44.80;;;1.60;;
2838;SDS011;1427;48.510;9.060;2023-11-19T06:27:35;44.60;;;1.27;;
2838;SDS011;1427;48.510;9.060;2023-11-19T06:30:04;44.87;;;1.57;;
2838;SDS011;1427;48.510;9.060;2023-11-19T06:32:33;44.70;;;1.50;;
2838;SDS011;1427;48.510;9.060;2023-11-19T06:35:01;44.53;;;1.40;;
2838;SDS011;1427;48.510;9.060;2023-11-19T06:37:32;44.90;;;1.73;;
2838;SDS011;1427;48.510;9.060;2023-11-19T06:40:00;44.77;;;1.70;;
2838;SDS011;1427;48.510;9.060;2023-11-19T06:42:31;44.77;;;1.53;;
2838;SDS011;1427;48.510;9.060;2023-11-19T06:44:59;44.97;;;1.70;;
2838;SDS011;1427;48.510;9.060;2023-11-19T06:47:27;45.07;;;2.03;;
2838;SDS011;1427;48.510;9.060;2023-11-19T06:49:56;45.07;;;2.17;;
2838;SDS011;1427;48.510;9.060;2023-11-19T06:52:24;45.07;;;1.90;;
2838;SDS011;1427;48.510;9.060;2023-11-19T06:54:53;44.90;;;1.90;;
2838;SDS011;1427;48.510;9.060;2023-11-19T06:57:33;45.13;;;1.93;;
2838;SDS011;1427;48.510;9.060;2023-11-19T07:00:02;45.07;;;1.53;;
2838;SDS011;1427;48.510;9.060;2023-11-19T07:02:32;44.60;;;1.30;;
2838;SDS011;1427;48.510;9.060;2023-11-19T07:05:00;44.87;;;1.50;;
2838;SDS011;1427;48.510;9.060;2023-11-19T07:07:30;46.27;;;1.93;;
2838;SDS011;1427;48.510;9.060;2023-11-19T07:10:00;45.60;;;1.90;;
2838;SDS011;1427;48.510;9.060;2023-11-19T07:12:28;44.60;;;1.60;;
2838;SDS011;1427;48.510;9.060;2023-11-19T07:14:56;44.80;;;1.60;;
2838;SDS011;1427;48.510;9.060;2023-11-19T07:17:24;45.07;;;1.80;;
2838;SDS011;1427;48.510;9.060;2023-11-19T07:19:53;44.97;;;1.90;;
2838;SDS011;1427;48.510;9.060;2023-11-19T07:22:25;45.33;;;2.10;;
2838;SDS011;1427;48.510;9.060;2023-11-19T07:24:56;45.50;;;2.67;;
2838;SDS011;1427;48.510;9.060;2023-11-19T07:27:26;46.00;;;3.67;;
2838;SDS011;1427;48.510;9.060;2023-11-19T07:29:54;46.37;;;4.50;;
2838;SDS011;1427;48.510;9.060;2023-11-19T07:32:24;47.13;;;5.40;;
2838;SDS011;1427;48.510;9.060;2023-11-19T07:34:52;47.33;;;5.93;;
2838;SDS011;1427;48.510;9.060;2023-11-19T07:37:22;47.00;;;5.27;;
2838;SDS011;1427;48.510;9.060;2023-11-19T07:39:51;47.43;;;4.97;;
2838;SDS011;1427;48.510;9.060;2023-11-19T07:42:19;46.40;;;3.73;;
2838;SDS011;1427;48.510;9.060;2023-11-19T07:44:48;46.17;;;3.90;;
2838;SDS011;1427;48.510;9.060;2023-11-19T07:47:16;49.00;;;5.10;;
2838;SDS011;1427;48.510;9.060;2023-11-19T07:49:44;45.87;;;3.20;;
2838;SDS011;1427;48.510;9.060;2023-11-19T07:52:12;46.67;;;4.33;;
2838;SDS011;1427;48.510;9.060;2023-11-19T07:54:43;47.00;;;5.00;;
2838;SDS011;1427;48.510;9.060;2023-11-19T07:57:11;47.40;;;3.77;;
2838;SDS011;1427;48.510;9.060;2023-11-19T07:59:39;45.40;;;2.67;;
2838;SDS011;1427;48.510;9.060;2023-11-19T08:02:09;46.47;;;4.10;;
2838;SDS011;1427;48.510;9.060;2023-11-19T08:04:37;46.50;;;4.03;;
2838;SDS011;1427;48.510;9.060;2023-11-19T08:07:11;46.67;;;4.17;;
2838;SDS011;1427;48.510;9.060;2023-11-19T08:09:40;46.63;;;4.03;;
2838;SDS011;1427;48.510;9.060;2023-11-19T08:12:08;46.47;;;3.80;;
2838;SDS011;1427;48.510;9.060;2023-11-19T08:14:36;48.67;;;7.10;;
2838;SDS011;1427;48.510;9.060;2023-11-19T08:17:04;48.50;;;6.77;;
2838;SDS011;1427;48.510;9.060;2023-11-19T08:19:34;46.77;;;4.63;;
2838;SDS011;1427;48.510;9.060;2023-11-19T08:22:02;46.90;;;4.17;;
2838;SDS011;1427;48.510;9.060;2023-11-19T08:24:30;46.10;;;3.37;;
2838;SDS011;1427;48.510;9.060;2023-11-19T08:26:58;47.07;;;4.20;;
2838;SDS011;1427;48.510;9.060;2023-11-19T08:29:29;47.27;;;5.03;;
2838;SDS011;1427;48.510;9.060;2023-11-19T08:31:57;46.00;;;2.80;;
2838;SDS011;1427;48.510;9.060;2023-11-19T08:34:28;46.37;;;3.97;;
2838;SDS011;1427;48.510;9.060;2023-11-19T08:36:59;47.30;;;4.20;;
2838;SDS011;1427;48.510;9.060;2023-11-19T08:39:27;46.50;;;3.93;;
2838;SDS011;1427;48.510;9.060;2023-11-19T08:41:57;46.90;;;4.10;;
2838;SDS011;1427;48.510;9.060;2023-11-19T08:44:25;46.40;;;3.67;;
2838;SDS011;1427;48.510;9.060;2023-11-19T08:46:53;46.37;;;3.83;;
2838;SDS011;1427;48.510;9.060;2023-11-19T08:49:21;46.70;;;3.77;;
2838;SDS011;1427;48.510;9.060;2023-11-19T08:51:50;46.70;;;3.70;;
2838;SDS011;1427;48.510;9.060;2023-11-19T08:54:19;46.60;;;3.87;;
2838;SDS011;1427;48.510;9.060;2023-11-19T08:56:49;45.83;;;2.93;;
2838;SDS011;1427;48.510;9.060;2023-11-19T08:59:18;46.50;;;3.73;;
2838;SDS011;1427;48.510;9.060;2023-11-19T09:01:46;46.27;;;3.17;;
2838;SDS011;1427;48.510;9.060;2023-11-19T09:04:14;47.07;;;4.63;;
2838;SDS011;1427;48.510;9.060;2023-11-19T09:06:43;46.53;;;4.03;;
2838;SDS011;1427;48.510;9.060;2023-11-19T09:09:11;46.80;;;4.50;;
2838;SDS011;1427;48.510;9.060;2023-11-19T09:11:41;46.70;;;4.20;;
2838;SDS011;1427;48.510;9.060;2023-11-19T09:14:09;46.57;;;3.37;;
2838;SDS011;1427;48.510;9.060;2023-11-19T09:16:38;46.77;;;3.80;;
2838;SDS011;1427;48.510;9.060;2023-11-19T09:19:06;47.07;;;4.90;;
2838;SDS011;1427;48.510;9.060;2023-11-19T09:21:34;46.90;;;4.03;;
2838;SDS011;1427;48.510;9.060;2023-11-19T09:24:05;47.07;;;4.20;;
2838;SDS011;1427;48.510;9.060;2023-11-19T09:26:34;47.43;;;4.23;;
2838;SDS011;1427;48.510;9.060;2023-11-19T09:29:07;46.77;;;3.70;;
2838;SDS011;1427;48.510;9.060;2023-11-19T09:31:37;47.27;;;4.20;;
2838;SDS011;1427;48.510;9.060;2023-11-19T09:34:05;46.27;;;2.83;;
2838;SDS011;1427;48.510;9.060;2023-11-19T09:36:34;46.30;;;3.17;;
2838;SDS011;1427;48.510;9.060;2023-11-19T09:39:02;46.70;;;3.77;;
2838;SDS011;1427;48.510;9.060;2023-11-19T09:41:31;47.53;;;4.83;;
2838;SDS011;1427;48.510;9.060;2023-11-19T09:44:01;46.60;;;3.30;;
2838;SDS011;1427;48.510;9.060;2023-11-19T09:46:30;47.07;;;4.30;;
2838;SDS011;1427;48.510;9.060;2023-11-19T09:48:59;46.47;;;3.57;;
2838;SDS011;1427;48.510;9.060;2023-11-19T09:51:27;46.80;;;3.63;;
2838;SDS011;1427;48.510;9.060;2023-11-19T09:53:56;46.93;;;3.80;;
2838;SDS011;1427;48.510;9.060;2023-11-19T09:56:24;46.90;;;3.67;;
2838;SDS011;1427;48.510;9.060;2023-11-19T09:58:53;46.67;;;3.70;;
2838;SDS011;1427;48.510;9.060;2023-11-19T10:01:22;46.40;;;3.33;;
2838;SDS011;1427;48.510;9.060;2023-11-19T10:03:56;47.53;;;5.10;;
2838;SDS011;1427;48.510;9.060;2023-11-19T10:06:24;47.00;;;3.90;;
2838;SDS011;1427;48.510;9.060;2023-11-19T10:08:54;46.60;;;3.07;;
2838;SDS011;1427;48.510;9.060;2023-11-19T10:11:22;47.10;;;4.27;;
2838;SDS011;1427;48.510;9.060;2023-11-19T10:13:51;46.87;;;4.10;;
2838;SDS011;1427;48.510;9.060;2023-11-19T10:16:21;46.70;;;3.67;;
2838;SDS011;1427;48.510;9.060;2023-11-19T10:18:58;46.67;;;3.03;;
2838;SDS011;1427;48.510;9.060;2023-11-19T10:21:26;46.50;;;3.63;;
2838;SDS011;1427;48.510;9.060;2023-11-19T10:23:56;46.70;;;3.57;;
2838;SDS011;1427;48.510;9.060;2023-11-19T10:26:26;46.77;;;3.70;;
2838;SDS011;1427;48.510;9.060;2023-11-19T10:28:55;46.60;;;3.30;;
2838;SDS011;1427;48.510;9.060;2023-11-19T10:31:23;47.50;;;5.10;;
2838;SDS011;1427;48.510;9.060;2023-11-19T10:33:53;46.30;;;3.20;;
2838;SDS011;1427;48.510;9.060;2023-11-19T10:36:22;46.20;;;2.97;;
2838;SDS011;1427;48.510;9.060;2023-11-19T10:39:05;46.97;;;3.30;;
2838;SDS011;1427;48.510;9.060;2023-11-19T10:41:35;47.70;;;4.60;;
2838;SDS011;1427;48.510;9.060;2023-11-19T10:44:04;46.50;;;3.43;;
2838;SDS011;1427;48.510;9.060;2023-11-19T10:46:36;47.00;;;4.00;;
2838;SDS011;1427;48.510;9.060;2023-11-19T10:49:06;46.83;;;3.13;;
2838;SDS011;1427;48.510;9.060;2023-11-19T10:51:35;46.60;;;3.57;;
2838;SDS011;1427;48.510;9.060;2023-11-19T10:54:04;47.00;;;4.20;;
2838;SDS011;1427;48.510;9.060;2023-11-19T10:56:33;46.67;;;3.57;;
2838;SDS011;1427;48.510;9.060;2023-11-19T10:59:02;46.70;;;3.80;;
2838;SDS011;1427;48.510;9.060;2023-11-19T11:01:49;46.70;;;3.93;;
2838;SDS011;1427;48.510;9.060;2023-11-19T11:04:23;46.97;;;3.90;;
2838;SDS011;1427;48.510;9.060;2023-11-19T11:06:54;46.30;;;3.20;;
2838;SDS011;1427;48.510;9.060;2023-11-19T11:09:25;46.50;;;3.03;;
2838;SDS011;1427;48.510;9.060;2023-11-19T11:11:54;46.57;;;3.60;;
2838;SDS011;1427;48.510;9.060;2023-11-19T11:14:24;46.90;;;3.70;;
2838;SDS011;1427;48.510;9.060;2023-11-19T11:16:54;46.33;;;3.27;;
2838;SDS011;1427;48.510;9.060;2023-11-19T11:19:24;47.13;;;3.70;;
2838;SDS011;1427;48.510;9.060;2023-11-19T11:21:55;47.00;;;3.40;;
2838;SDS011;1427;48.510;9.060;2023-11-19T11:27:49;47.17;;;4.00;;
2838;SDS011;1427;48.510;9.060;2023-11-19T11:30:32;47.17;;;3.77;;
2838;SDS011;1427;48.510;9.060;2023-11-19T11:33:15;46.87;;;3.50;;
2838;SDS011;1427;48.510;9.060;2023-11-19T11:35:55;47.40;;;4.10;;
2838;SDS011;1427;48.510;9.060;2023-11-19T11:38:36;47.10;;;3.63;;
2838;SDS011;1427;48.510;9.060;2023-11-19T11:41:15;47.60;;;4.50;;
2838;SDS011;1427;48.510;9.060;2023-11-19T11:43:46;47.17;;;4.20;;
2838;SDS011;1427;48.510;9.060;2023-11-19T11:49:25;47.33;;;4.80;;
2838;SDS011;1427;48.510;9.060;2023-11-19T11:52:00;47.10;;;3.90;;
2838;SDS011;1427;48.510;9.060;2023-11-19T11:54:31;48.50;;;5.60;;
2838;SDS011;1427;48.510;9.060;2023-11-19T11:57:03;47.30;;;4.13;;
2838;SDS011;1427;48.510;9.060;2023-11-19T11:59:42;47.47;;;4.47;;
2838;SDS011;1427;48.510;9.060;2023-11-19T12:02:14;47.10;;;3.77;;
2838;SDS011;1427;48.510;9.060;2023-11-19T12:04:46;47.37;;;4.83;;
2838;SDS011;1427;48.510;9.060;2023-11-19T12:07:16;47.97;;;4.40;;
2838;SDS011;1427;48.510;9.060;2023-11-19T12:09:52;53.80;;;4.63;;
2838;SDS011;1427;48.510;9.060;2023-11-19T12:12:34;47.50;;;4.20;;
2838;SDS011;1427;48.510;9.060;2023-11-19T12:15:05;46.97;;;3.90;;
2838;SDS011;1427;48.510;9.060;2023-11-19T12:17:37;47.03;;;3.50;;
2838;SDS011;1427;48.510;9.060;2023-11-19T12:20:11;47.93;;;4.43;;
2838;SDS011;1427;48.510;9.060;2023-11-19T12:22:40;47.27;;;4.40;;
2838;SDS011;1427;48.510;9.060;2023-11-19T12:25:11;47.33;;;4.40;;
2838;SDS011;1427;48.510;9.060;2023-11-19T12:27:41;47.00;;;4.07;;
2838;SDS011;1427;48.510;9.060;2023-11-19T12:30:11;47.40;;;4.30;;
2838;SDS011;1427;48.510;9.060;2023-11-19T12:32:40;48.20;;;5.03;;
2838;SDS011;1427;48.510;9.060;2023-11-19T12:35:09;47.73;;;4.97;;
2838;SDS011;1427;48.510;9.060;2023-11-19T12:37:39;46.50;;;3.40;;
2838;SDS011;1427;48.510;9.060;2023-11-19T12:40:16;47.37;;;4.20;;
2838;SDS011;1427;48.510;9.060;2023-11-19T12:42:45;47.27;;;3.83;;
2838;SDS011;1427;48.510;9.060;2023-11-19T12:45:14;47.07;;;4.17;;
2838;SDS011;1427;48.510;9.060;2023-11-19T12:47:43;47.27;;;4.30;;
2838;SDS011;1427;48.510;9.060;2023-11-19T12:50:13;47.30;;;4.17;;
2838;SDS011;1427;48.510;9.060;2023-11-19T12:52:47;47.70;;;5.07;;
2838;SDS011;1427;48.510;9.060;2023-11-19T12:55:27;48.43;;;4.17;;
2838;SDS011;1427;48.510;9.060;2023-11-19T12:57:57;47.50;;;4.10;;
2838;SDS011;1427;48.510;9.060;2023-11-19T13:00:26;47.67;;;4.80;;
2838;SDS011;1427;48.510;9.060;2023-11-19T13:02:55;47.73;;;4.27;;
2838;SDS011;1427;48.510;9.060;2023-11-19T13:05:25;46.80;;;3.60;;
2838;SDS011;1427;48.510;9.060;2023-11-19T13:08:00;47.60;;;4.60;;
2838;SDS011;1427;48.510;9.060;2023-11-19T13:10:32;48.60;;;4.97;;
2838;SDS011;1427;48.510;9.060;2023-11-19T13:13:05;46.80;;;3.53;;
2838;SDS011;1427;48.510;9.060;2023-11-19T13:15:35;48.50;;;3.80;;
2838;SDS011;1427;48.510;9.060;2023-11-19T13:18:03;50.45;;;3.95;;
2838;SDS011;1427;48.510;9.060;2023-11-19T13:20:33;47.10;;;3.90;;
2838;SDS011;1427;48.510;9.060;2023-11-19T13:23:02;47.37;;;4.17;;
2838;SDS011;1427;48.510;9.060;2023-11-19T13:25:30;47.47;;;3.93;;
2838;SDS011;1427;48.510;9.060;2023-11-19T13:28:00;47.37;;;4.40;;
2838;SDS011;1427;48.510;9.060;2023-11-19T13:30:29;48.40;;;4.90;;
2838;SDS011;1427;48.510;9.060;2023-11-19T13:32:58;46.50;;;3.07;;
2838;SDS011;1427;48.510;9.060;2023-11-19T13:35:27;46.97;;;4.27;;
2838;SDS011;1427;48.510;9.060;2023-11-19T13:37:57;50.58;;;4.47;;
2838;SDS011;1427;48.510;9.060;2023-11-19T13:40:25;50.92;;;4.03;;
2838;SDS011;1427;48.510;9.060;2023-11-19T13:42:54;47.20;;;3.67;;
2838;SDS011;1427;48.510;9.060;2023-11-19T13:45:24;50.40;;;4.57;;
2838;SDS011;1427;48.510;9.060;2023-11-19T13:47:52;47.77;;;4.20;;
2838;SDS011;1427;48.510;9.060;2023-11-19T13:50:21;46.80;;;3.53;;
2838;SDS011;1427;48.510;9.060;2023-11-19T13:52:49;46.43;;;3.57;;
2838;SDS011;1427;48.510;9.060;2023-11-19T13:55:18;47.83;;;5.30;;
2838;SDS011;1427;48.510;9.060;2023-11-19T13:57:46;47.37;;;4.27;;
2838;SDS011;1427;48.510;9.060;2023-11-19T14:00:15;46.57;;;3.40;;
2838;SDS011;1427;48.510;9.060;2023-11-19T14:02:46;47.43;;;4.30;;
2838;SDS011;1427;48.510;9.060;2023-11-19T14:05:16;47.60;;;3.90;;
2838;SDS011;1427;48.510;9.060;2023-11-19T14:08:08;47.30;;;4.23;;
2838;SDS011;1427;48.510;9.060;2023-11-19T14:11:39;47.50;;;4.27;;
2838;SDS011;1427;48.510;9.060;2023-11-19T14:14:20;47.37;;;4.50;;
2838;SDS011;1427;48.510;9.060;2023-11-19T14:16:49;46.07;;;2.70;;
2838;SDS011;1427;48.510;9.060;2023-11-19T14:19:19;47.20;;;3.87;;
2838;SDS011;1427;48.510;9.060;2023-11-19T14:21:47;46.53;;;3.30;;
2838;SDS011;1427;48.510;9.060;2023-11-19T14:24:15;47.60;;;4.60;;
2838;SDS011;1427;48.510;9.060;2023-11-19T14:26:45;46.77;;;3.80;;
2838;SDS011;1427;48.510;9.060;2023-11-19T14:29:13;46.87;;;4.07;;
2838;SDS011;1427;48.510;9.060;2023-11-19T14:31:41;47.20;;;4.23;;
2838;SDS011;1427;48.510;9.060;2023-11-19T14:34:10;47.47;;;5.67;;
2838;SDS011;1427;48.510;9.060;2023-11-19T14:36:39;47.50;;;4.00;;
2838;SDS011;1427;48.510;9.060;2023-11-19T14:39:07;47.67;;;4.90;;
2838;SDS011;1427;48.510;9.060;2023-11-19T14:41:36;49.43;;;3.87;;
2838;SDS011;1427;48.510;9.060;2023-11-19T14:44:05;46.97;;;3.90;;
2838;SDS011;1427;48.510;9.060;2023-11-19T14:46:33;46.80;;;4.10;;
2838;SDS011;1427;48.510;9.060;2023-11-19T14:49:02;46.63;;;3.70;;
2838;SDS011;1427;48.510;9.060;2023-11-19T14:51:30;47.20;;;4.63;;
2838;SDS011;1427;48.510;9.060;2023-11-19T14:54:01;46.77;;;3.47;;
2838;SDS011;1427;48.510;9.060;2023-11-19T14:56:44;47.33;;;4.17;;
2838;SDS011;1427;48.510;9.060;2023-11-19T14:59:13;47.00;;;4.20;;
2838;SDS011;1427;48.510;9.060;2023-11-19T15:01:41;48.13;;;5.50;;
2838;SDS011;1427;48.510;9.060;2023-11-19T15:04:12;47.07;;;4.30;;
2838;SDS011;1427;48.510;9.060;2023-11-19T15:06:40;46.63;;;3.87;;
2838;SDS011;1427;48.510;9.060;2023-11-19T15:09:10;47.17;;;4.43;;
2838;SDS011;1427;48.510;9.060;2023-11-19T15:11:42;48.03;;;3.97;;
2838;SDS011;1427;48.510;9.060;2023-11-19T15:14:12;46.83;;;3.97;;
2838;SDS011;1427;48.510;9.060;2023-11-19T15:16:43;47.07;;;3.90;;
2838;SDS011;1427;48.510;9.060;2023-11-19T15:19:11;46.80;;;4.20;;
2838;SDS011;1427;48.510;9.060;2023-11-19T15:21:40;47.40;;;4.37;;
2838;SDS011;1427;48.510;9.060;2023-11-19T15:24:10;46.77;;;3.80;;